Time;durP1;ratioP1;P1;durP2;ratioP2;P2;SDS_P1;SDS_P2;PMS_P1;PMS_P2;Temp;Humidity;BMP_temperature;BMP_pressure;BME280_temperature;BME280_humidity;BME280_pressure;Samples;Min_cycle;Max_cycle;Signal;HPM_P1;HPM_P2
2023/09/29 00:00:36;;;;;;;6.10;4.77;;;14.20;99.90;;;;;;4950702;29;20212;-57
2023/09/29 00:03:06;;;;;;;5.60;4.37;;;14.20;99.90;;;;;;4951445;29;20369;-57
2023/09/29 00:05:37;;;;;;;5.37;4.47;;;14.20;99.90;;;;;;4946575;29;20228;-57
2023/09/29 00:08:06;;;;;;;3.90;3.70;;;14.20;99.90;;;;;;4950972;29;20753;-57
2023/09/29 00:10:34;;;;;;;4.43;4.13;;;14.20;99.90;;;;;;4950882;29;20205;-57
2023/09/29 00:13:01;;;;;;;3.47;3.23;;;14.10;99.90;;;;;;4950606;29;20235;-57
2023/09/29 00:15:31;;;;;;;4.77;3.90;;;14.00;99.90;;;;;;4951270;28;20201;-57
2023/09/29 00:17:59;;;;;;;4.27;3.77;;;14.00;99.90;;;;;;4947520;29;20702;-57
2023/09/29 00:20:26;;;;;;;7.67;4.73;;;13.90;99.90;;;;;;4946056;29;20228;-57
2023/09/29 00:22:54;;;;;;;20.60;6.43;;;13.80;99.90;;;;;;4950716;29;20304;-56
2023/09/29 00:25:22;;;;;;;5.00;4.33;;;13.80;99.90;;;;;;4950290;28;20972;-56
2023/09/29 00:27:49;;;;;;;5.17;4.27;;;13.80;99.90;;;;;;4951693;29;20283;-57
2023/09/29 00:30:16;;;;;;;5.53;5.03;;;13.80;99.90;;;;;;4951058;29;20209;-56
2023/09/29 00:32:46;;;;;;;5.50;4.03;;;13.80;99.90;;;;;;4951900;29;20257;-56
2023/09/29 00:35:21;;;;;;;6.30;5.13;;;14.00;99.90;;;;;;4952131;29;20680;-56
2023/09/29 00:37:48;;;;;;;4.87;4.37;;;14.10;99.90;;;;;;4952336;29;20375;-56
2023/09/29 00:40:15;;;;;;;6.53;4.53;;;14.10;99.90;;;;;;4947215;28;20235;-59
2023/09/29 00:42:44;;;;;;;5.20;4.70;;;14.20;99.90;;;;;;4950798;29;20293;-59
2023/09/29 00:45:16;;;;;;;5.50;4.97;;;14.20;99.90;;;;;;4946857;29;20272;-59
2023/09/29 00:47:45;;;;;;;5.03;4.50;;;14.10;99.90;;;;;;4951891;29;20228;-57
2023/09/29 00:50:14;;;;;;;5.53;4.33;;;14.00;99.90;;;;;;4944565;29;20216;-57
2023/09/29 00:52:43;;;;;;;4.77;3.60;;;13.90;99.90;;;;;;4950421;29;20496;-57
2023/09/29 00:55:13;;;;;;;3.73;3.30;;;13.80;99.90;;;;;;4946057;29;20671;-57
2023/09/29 00:57:41;;;;;;;4.33;3.93;;;13.80;99.90;;;;;;4950042;29;20229;-56
2023/09/29 01:00:13;;;;;;;5.23;3.83;;;13.70;99.90;;;;;;4948078;29;20201;-57
2023/09/29 01:02:43;;;;;;;3.73;3.40;;;13.70;99.90;;;;;;4950411;29;20209;-56
2023/09/29 01:05:12;;;;;;;4.03;3.73;;;13.60;99.90;;;;;;4948999;29;20205;-57
2023/09/29 01:07:41;;;;;;;3.20;3.00;;;13.60;99.90;;;;;;4950061;28;20261;-56
2023/09/29 01:10:10;;;;;;;6.80;4.00;;;13.60;99.90;;;;;;4950113;28;20260;-57
2023/09/29 01:12:38;;;;;;;5.00;4.17;;;13.60;99.90;;;;;;4949776;29;20320;-57
2023/09/29 01:15:06;;;;;;;5.63;5.23;;;13.60;99.90;;;;;;4949974;29;20293;-56
2023/09/29 01:17:33;;;;;;;6.03;3.90;;;13.60;99.90;;;;;;4950558;29;20232;-57
2023/09/29 01:20:00;;;;;;;3.57;3.27;;;13.60;99.90;;;;;;4951723;29;20208;-57
2023/09/29 01:22:30;;;;;;;3.37;3.17;;;13.60;99.90;;;;;;4950995;29;20198;-56
2023/09/29 01:25:01;;;;;;;3.80;3.50;;;13.60;99.90;;;;;;4942877;28;20232;-56
2023/09/29 01:27:28;;;;;;;4.83;3.40;;;13.60;99.90;;;;;;4955036;29;20227;-56
2023/09/29 01:29:55;;;;;;;4.10;3.77;;;13.50;99.90;;;;;;4950760;29;20753;-56
2023/09/29 01:32:22;;;;;;;3.23;2.93;;;13.50;99.90;;;;;;4953913;29;20229;-57
2023/09/29 01:34:49;;;;;;;3.10;2.90;;;13.40;99.90;;;;;;4952244;29;20209;-57
2023/09/29 01:37:18;;;;;;;4.47;3.77;;;13.40;99.90;;;;;;4952537;29;20229;-57
2023/09/29 01:39:45;;;;;;;3.47;3.17;;;13.40;99.90;;;;;;4950977;29;20213;-57
2023/09/29 01:42:13;;;;;;;3.63;3.33;;;13.40;99.90;;;;;;4955148;29;20264;-57
2023/09/29 01:44:40;;;;;;;4.47;3.90;;;13.30;99.90;;;;;;4950274;29;20671;-57
2023/09/29 01:47:07;;;;;;;2.87;2.73;;;13.30;99.90;;;;;;4954766;29;20324;-57
2023/09/29 01:49:34;;;;;;;3.77;3.20;;;13.20;99.90;;;;;;4948973;29;20906;-57
2023/09/29 01:52:01;;;;;;;3.53;3.30;;;13.30;99.90;;;;;;4953239;29;20280;-57
2023/09/29 01:54:28;;;;;;;4.00;3.60;;;13.30;99.90;;;;;;4952946;29;20213;-56
2023/09/29 01:56:55;;;;;;;3.27;2.97;;;13.20;99.90;;;;;;4953900;29;20788;-57
2023/09/29 01:59:23;;;;;;;3.70;3.40;;;13.20;99.90;;;;;;4954720;29;20205;-57
2023/09/29 02:01:50;;;;;;;4.13;3.60;;;13.10;99.90;;;;;;4953658;29;20210;-57
2023/09/29 02:04:17;;;;;;;3.80;3.47;;;13.10;99.90;;;;;;4953175;29;20205;-56
2023/09/29 02:06:44;;;;;;;4.57;3.67;;;13.00;99.90;;;;;;4953380;29;20633;-56
2023/09/29 02:09:11;;;;;;;5.10;3.77;;;12.90;99.90;;;;;;4954795;28;20583;-57
2023/09/29 02:11:40;;;;;;;4.57;3.63;;;12.90;99.90;;;;;;4951787;29;20237;-56
2023/09/29 02:14:07;;;;;;;4.77;4.47;;;12.90;99.90;;;;;;4953651;28;20243;-57
2023/09/29 02:16:36;;;;;;;3.47;3.17;;;12.80;99.90;;;;;;4946589;29;20232;-56
2023/09/29 02:19:03;;;;;;;3.97;3.63;;;12.80;99.90;;;;;;4954304;28;20209;-57
2023/09/29 02:21:31;;;;;;;4.73;3.83;;;12.70;99.90;;;;;;4953375;29;20203;-56
2023/09/29 02:23:58;;;;;;;3.47;3.20;;;12.80;99.90;;;;;;4950556;29;20212;-56
2023/09/29 02:26:28;;;;;;;6.00;4.10;;;12.80;99.90;;;;;;4942046;29;20254;-57
2023/09/29 02:28:55;;;;;;;4.53;3.97;;;12.80;99.90;;;;;;4952222;29;20609;-57
2023/09/29 02:31:23;;;;;;;3.67;3.47;;;12.90;99.90;;;;;;4952576;28;20209;-58
2023/09/29 02:33:53;;;;;;;5.77;4.27;;;12.90;99.90;;;;;;4949818;29;20725;-57
2023/09/29 02:36:20;;;;;;;3.30;3.00;;;12.90;99.90;;;;;;4953995;29;20667;-57
2023/09/29 02:38:47;;;;;;;4.20;3.57;;;12.90;99.90;;;;;;4950302;28;20212;-57
2023/09/29 02:41:13;;;;;;;3.53;3.33;;;12.90;99.90;;;;;;4952167;29;20214;-57
2023/09/29 02:43:40;;;;;;;3.20;3.00;;;12.80;99.90;;;;;;4953843;29;20611;-56
2023/09/29 02:46:14;;;;;;;2.83;2.63;;;12.80;99.90;;;;;;4950546;29;20237;-57
2023/09/29 02:48:41;;;;;;;6.20;3.33;;;12.80;99.90;;;;;;4954035;29;20317;-57
2023/09/29 02:51:16;;;;;;;4.57;4.13;;;12.80;99.90;;;;;;4953675;29;20252;-57
2023/09/29 02:53:44;;;;;;;3.13;2.93;;;12.80;99.90;;;;;;4944479;29;20237;-56
2023/09/29 02:56:11;;;;;;;3.33;3.00;;;12.80;99.90;;;;;;4953867;28;20273;-57
2023/09/29 02:58:39;;;;;;;7.70;3.50;;;12.80;99.90;;;;;;4963199;28;20209;-57
2023/09/29 03:01:11;;;;;;;5.67;3.27;;;12.80;99.90;;;;;;4964196;28;20228;-56
2023/09/29 03:03:43;;;;;;;3.37;3.07;;;12.80;99.90;;;;;;4956026;28;20207;-56
2023/09/29 03:06:12;;;;;;;4.43;3.23;;;12.80;99.90;;;;;;4952491;28;20216;-56
2023/09/29 03:08:41;;;;;;;5.07;3.90;;;12.80;99.90;;;;;;4957674;28;20291;-57
2023/09/29 03:11:09;;;;;;;3.50;3.30;;;12.70;99.90;;;;;;4951979;28;20341;-56
2023/09/29 03:13:38;;;;;;;4.90;4.33;;;12.60;99.90;;;;;;4943283;28;20229;-56
2023/09/29 03:16:06;;;;;;;7.93;3.97;;;12.60;99.90;;;;;;4952438;28;20205;-59
2023/09/29 03:18:34;;;;;;;3.40;2.77;;;12.60;99.90;;;;;;4961878;28;20205;-59
2023/09/29 03:21:01;;;;;;;3.57;3.27;;;12.50;99.90;;;;;;4953078;29;20202;-59
2023/09/29 03:23:28;;;;;;;3.67;3.37;;;12.40;99.90;;;;;;4962582;28;20252;-59
2023/09/29 03:25:56;;;;;;;3.03;2.73;;;12.40;99.90;;;;;;4964326;28;20259;-59
2023/09/29 03:28:23;;;;;;;4.53;3.00;;;12.30;99.90;;;;;;4962680;28;20282;-59
2023/09/29 03:30:50;;;;;;;6.87;4.27;;;12.30;99.90;;;;;;4959553;28;20274;-59
2023/09/29 03:33:17;;;;;;;3.73;3.30;;;12.20;99.90;;;;;;4953260;28;20225;-59
2023/09/29 03:35:45;;;;;;;3.37;2.80;;;12.20;99.90;;;;;;4952300;28;20303;-59
2023/09/29 03:38:14;;;;;;;3.03;2.73;;;12.20;99.90;;;;;;4945120;28;20229;-59
2023/09/29 03:40:44;;;;;;;5.67;3.43;;;12.10;99.90;;;;;;4948501;28;20205;-59
2023/09/29 03:43:12;;;;;;;3.33;3.03;;;12.20;99.90;;;;;;4942366;28;20197;-59
2023/09/29 03:45:42;;;;;;;11.37;4.20;;;12.20;99.90;;;;;;4948619;28;20633;-59
2023/09/29 03:48:10;;;;;;;4.07;3.50;;;12.20;99.90;;;;;;4943923;28;20225;-59
2023/09/29 03:50:41;;;;;;;3.07;2.80;;;12.20;99.90;;;;;;4946308;28;20213;-59
2023/09/29 03:53:08;;;;;;;3.20;2.80;;;12.20;99.90;;;;;;4943670;28;20221;-59
2023/09/29 03:55:37;;;;;;;7.43;2.67;;;12.20;99.90;;;;;;4942888;28;20208;-59
2023/09/29 03:58:05;;;;;;;3.20;2.70;;;12.20;99.90;;;;;;4942679;29;20316;-59
2023/09/29 04:00:33;;;;;;;3.20;2.90;;;12.20;99.90;;;;;;4942670;28;20213;-59
2023/09/29 04:03:01;;;;;;;3.00;2.80;;;12.20;99.90;;;;;;4941143;28;20208;-59
2023/09/29 04:05:28;;;;;;;2.67;2.47;;;12.20;99.90;;;;;;4947403;28;20352;-59
2023/09/29 04:07:55;;;;;;;2.93;2.23;;;12.30;99.90;;;;;;4949574;28;20229;-59
2023/09/29 04:10:22;;;;;;;2.50;2.30;;;12.30;99.90;;;;;;4945459;28;20202;-59
2023/09/29 04:12:49;;;;;;;2.80;2.63;;;12.30;99.90;;;;;;4947315;28;20218;-59
2023/09/29 04:15:17;;;;;;;2.43;2.20;;;12.20;99.90;;;;;;4943281;28;20216;-59
2023/09/29 04:17:46;;;;;;;3.03;2.80;;;12.20;99.90;;;;;;4946428;28;20232;-59
2023/09/29 04:20:15;;;;;;;3.53;3.23;;;12.20;99.90;;;;;;4942878;28;20200;-59
2023/09/29 04:22:43;;;;;;;3.43;2.97;;;12.20;99.90;;;;;;4944751;28;20216;-59
2023/09/29 04:25:11;;;;;;;3.50;3.30;;;12.20;99.90;;;;;;4942792;28;20309;-59
2023/09/29 04:27:38;;;;;;;3.07;2.80;;;12.20;99.90;;;;;;4942075;28;20247;-59
2023/09/29 04:30:07;;;;;;;4.10;3.67;;;12.30;99.90;;;;;;4943729;28;20213;-59
2023/09/29 04:32:34;;;;;;;3.20;3.00;;;12.30;99.90;;;;;;4945412;28;20311;-59
2023/09/29 04:35:03;;;;;;;3.20;2.63;;;12.20;99.90;;;;;;4947557;28;20259;-59
2023/09/29 04:37:30;;;;;;;9.30;3.70;;;12.20;99.90;;;;;;4945418;28;20235;-59
2023/09/29 04:39:58;;;;;;;4.20;3.90;;;12.10;99.90;;;;;;4942878;28;20216;-59
2023/09/29 04:42:25;;;;;;;6.60;3.03;;;12.10;99.90;;;;;;4939253;28;20202;-59
2023/09/29 04:44:52;;;;;;;4.30;2.73;;;12.10;99.90;;;;;;4946352;28;20252;-59
2023/09/29 04:47:20;;;;;;;4.07;3.37;;;12.00;99.90;;;;;;4944581;28;21551;-59
2023/09/29 04:49:49;;;;;;;5.77;3.50;;;12.00;99.90;;;;;;4943665;28;20263;-59
2023/09/29 04:52:18;;;;;;;7.63;5.80;;;11.90;99.90;;;;;;4944097;28;20206;-56
2023/09/29 04:54:45;;;;;;;7.70;6.27;;;11.90;99.90;;;;;;4941384;28;20208;-59
2023/09/29 04:57:12;;;;;;;8.17;6.10;;;11.90;99.90;;;;;;4942278;28;21016;-59
2023/09/29 04:59:39;;;;;;;10.20;5.67;;;11.90;99.90;;;;;;4945132;28;20285;-59
2023/09/29 05:02:06;;;;;;;5.93;5.20;;;11.90;99.90;;;;;;4969833;23;20213;31
2023/09/29 05:04:33;;;;;;;8.33;6.23;;;11.90;99.90;;;;;;4930910;29;20218;-62
2023/09/29 05:07:00;;;;;;;5.23;4.73;;;11.90;99.90;;;;;;4935604;29;20205;-61
2023/09/29 05:09:29;;;;;;;10.40;5.67;;;11.80;99.90;;;;;;4942225;29;20200;-62
2023/09/29 05:11:56;;;;;;;7.40;5.13;;;11.80;99.90;;;;;;4928023;29;20201;-62
2023/09/29 05:14:23;;;;;;;5.23;4.73;;;11.80;99.90;;;;;;4936502;29;20276;-61
2023/09/29 05:16:50;;;;;;;7.00;4.73;;;11.80;99.90;;;;;;4934902;29;20206;-61
2023/09/29 05:19:17;;;;;;;5.63;4.07;;;11.70;99.90;;;;;;4935688;29;20268;-61
2023/09/29 05:21:45;;;;;;;4.90;3.90;;;11.80;99.90;;;;;;4932742;29;20213;-61
2023/09/29 05:24:12;;;;;;;5.90;3.87;;;11.70;99.90;;;;;;4936157;29;20271;-62
2023/09/29 05:26:40;;;;;;;5.20;3.93;;;11.80;99.90;;;;;;4935521;29;20625;-61
2023/09/29 05:29:07;;;;;;;4.87;3.83;;;11.80;99.90;;;;;;4933901;29;20210;-62
2023/09/29 05:31:34;;;;;;;3.70;3.40;;;11.70;99.90;;;;;;4932698;29;20264;-62
2023/09/29 05:34:01;;;;;;;3.70;3.40;;;11.80;99.90;;;;;;4932571;29;20311;-62
2023/09/29 05:36:29;;;;;;;4.37;3.00;;;11.80;99.90;;;;;;4939398;29;20207;-62
2023/09/29 05:38:56;;;;;;;7.97;3.40;;;11.90;99.90;;;;;;4927736;29;20636;-62
2023/09/29 05:41:23;;;;;;;3.80;2.80;;;11.90;99.90;;;;;;4931436;29;20205;-61
2023/09/29 05:43:52;;;;;;;3.23;2.77;;;11.90;99.90;;;;;;4930991;29;20225;-62
2023/09/29 05:46:19;;;;;;;4.13;3.70;;;11.90;99.90;;;;;;4927390;29;20312;-61
2023/09/29 05:48:45;;;;;;;5.73;4.10;;;11.90;99.90;;;;;;4936269;29;20206;-62
2023/09/29 05:51:13;;;;;;;5.70;3.70;;;11.90;99.90;;;;;;4937129;29;20197;-62
2023/09/29 05:53:40;;;;;;;6.80;4.17;;;11.90;99.90;;;;;;4941868;28;20226;-61
2023/09/29 05:56:08;;;;;;;4.57;3.60;;;12.10;99.90;;;;;;4942887;29;20208;-61
2023/09/29 05:58:36;;;;;;;4.13;3.83;;;12.10;99.90;;;;;;4930499;29;20213;-61
2023/09/29 06:01:11;;;;;;;4.50;3.37;;;12.20;99.90;;;;;;4935587;29;20291;-61
2023/09/29 06:03:40;;;;;;;4.33;2.93;;;12.20;99.90;;;;;;4942218;28;20231;-61
2023/09/29 06:06:08;;;;;;;3.67;3.37;;;12.30;99.90;;;;;;4955132;28;20720;-62
2023/09/29 06:08:36;;;;;;;2.97;2.60;;;12.30;99.90;;;;;;4952072;28;20562;-62
2023/09/29 06:11:03;;;;;;;4.27;3.07;;;12.40;99.90;;;;;;4951215;28;20260;-62
2023/09/29 06:13:31;;;;;;;3.47;2.83;;;12.50;99.90;;;;;;4953268;28;20232;-62
2023/09/29 06:15:58;;;;;;;4.63;2.93;;;12.60;99.90;;;;;;4957389;28;20582;-62
2023/09/29 06:18:27;;;;;;;5.77;3.13;;;12.70;99.90;;;;;;4961359;28;20236;-60
2023/09/29 06:20:54;;;;;;;4.80;3.07;;;12.80;99.90;;;;;;4959797;28;20663;-62
2023/09/29 06:23:21;;;;;;;4.93;3.20;;;12.90;99.90;;;;;;4955177;28;20221;-62
2023/09/29 06:25:48;;;;;;;3.93;3.63;;;12.90;99.90;;;;;;4955908;28;20209;-62
2023/09/29 06:28:15;;;;;;;4.73;4.20;;;13.00;99.90;;;;;;4955815;28;20226;-61
2023/09/29 06:30:42;;;;;;;3.53;3.23;;;13.10;99.90;;;;;;4953089;28;20208;-61
2023/09/29 06:33:09;;;;;;;4.43;3.70;;;13.10;99.90;;;;;;4957411;28;20239;-62
2023/09/29 06:35:41;;;;;;;2.90;2.80;;;13.20;99.90;;;;;;4956219;28;20215;-62
2023/09/29 06:38:08;;;;;;;3.77;3.20;;;13.20;99.90;;;;;;4952124;28;20296;-62
2023/09/29 06:40:35;;;;;;;6.17;3.37;;;13.30;99.90;;;;;;4954668;28;20256;-62
2023/09/29 06:43:02;;;;;;;4.23;3.63;;;13.30;99.90;;;;;;4957371;28;20216;-62
2023/09/29 06:45:31;;;;;;;4.77;3.07;;;13.40;99.90;;;;;;4956920;28;20208;-62
2023/09/29 06:47:58;;;;;;;4.60;2.90;;;13.50;99.90;;;;;;4953259;28;20212;-62
2023/09/29 06:50:24;;;;;;;2.70;2.50;;;13.60;99.90;;;;;;4969401;28;20200;-62
2023/09/29 06:52:53;;;;;;;3.33;2.97;;;13.70;99.90;;;;;;4958687;28;20249;-61
2023/09/29 06:55:20;;;;;;;3.63;3.33;;;13.80;99.90;;;;;;4956908;28;20260;-62
2023/09/29 06:57:47;;;;;;;5.10;3.37;;;14.00;99.90;;;;;;4949011;28;21280;-62
2023/09/29 07:00:15;;;;;;;8.90;3.50;;;14.10;99.90;;;;;;4947441;29;20201;-62
2023/09/29 07:02:42;;;;;;;3.03;2.83;;;14.30;99.90;;;;;;4951564;28;20315;-62
2023/09/29 07:05:09;;;;;;;3.27;3.07;;;14.40;99.90;;;;;;4956731;28;20225;-62
2023/09/29 07:07:36;;;;;;;6.30;2.93;;;14.60;99.90;;;;;;4954093;28;20266;-62
2023/09/29 07:10:05;;;;;;;10.67;3.10;;;14.70;99.90;;;;;;4946390;28;20202;-62
2023/09/29 07:12:33;;;;;;;3.83;2.63;;;14.80;99.90;;;;;;4952648;28;20234;-68
2023/09/29 07:15:00;;;;;;;2.70;2.33;;;15.00;99.90;;;;;;4949323;29;20381;-68
2023/09/29 07:17:27;;;;;;;6.70;2.63;;;15.10;99.90;;;;;;4955364;28;20201;-69
2023/09/29 07:19:54;;;;;;;2.67;2.47;;;15.30;99.90;;;;;;4955360;28;20663;-68
2023/09/29 07:22:21;;;;;;;2.60;2.40;;;15.40;99.90;;;;;;4953783;28;20224;-67
2023/09/29 07:24:50;;;;;;;2.83;2.53;;;15.50;99.90;;;;;;4951877;28;20199;-68
2023/09/29 07:27:18;;;;;;;5.73;2.30;;;15.60;99.90;;;;;;4955708;28;20232;-66
2023/09/29 07:29:45;;;;;;;2.53;1.83;;;15.60;99.90;;;;;;4957701;28;20279;-67
2023/09/29 07:32:12;;;;;;;2.30;2.10;;;15.60;99.90;;;;;;4959421;28;20213;-66
2023/09/29 07:34:42;;;;;;;2.93;2.73;;;15.80;99.90;;;;;;4956994;28;20777;-66
2023/09/29 07:37:09;;;;;;;5.03;2.13;;;16.20;99.90;;;;;;4954744;28;20201;-67
2023/09/29 07:39:36;;;;;;;3.57;3.27;;;16.50;99.90;;;;;;4960549;28;20642;-66
2023/09/29 07:42:03;;;;;;;2.93;2.73;;;16.80;99.90;;;;;;4952672;28;20201;-70
2023/09/29 07:44:31;;;;;;;4.00;2.60;;;17.00;99.90;;;;;;4954352;28;20197;-69
2023/09/29 07:46:58;;;;;;;2.97;2.73;;;17.20;99.90;;;;;;4952468;28;20304;-59
2023/09/29 07:49:25;;;;;;;3.20;2.13;;;17.50;99.90;;;;;;4942926;28;20205;-59
2023/09/29 07:51:52;;;;;;;2.83;2.57;;;17.70;99.90;;;;;;4942707;28;20339;-58
2023/09/29 07:54:20;;;;;;;2.83;2.63;;;17.70;99.90;;;;;;4951832;28;20248;-58
2023/09/29 07:56:50;;;;;;;5.00;2.70;;;17.60;99.90;;;;;;4951092;28;20257;-58
2023/09/29 07:59:18;;;;;;;3.87;3.07;;;17.50;99.90;;;;;;4948626;29;20201;-59
2023/09/29 08:01:49;;;;;;;2.87;2.13;;;17.50;99.90;;;;;;4951987;29;20209;-59
2023/09/29 08:04:17;;;;;;;3.03;2.83;;;17.40;99.90;;;;;;4951636;28;20230;-58
2023/09/29 08:06:44;;;;;;;3.20;2.90;;;17.40;99.90;;;;;;4953867;29;20353;-59
2023/09/29 08:09:12;;;;;;;3.47;2.80;;;17.30;99.90;;;;;;4953189;28;20264;-58
2023/09/29 08:11:40;;;;;;;7.07;3.30;;;17.30;99.90;;;;;;4945008;29;20201;-59
2023/09/29 08:14:07;;;;;;;5.90;3.33;;;17.30;99.90;;;;;;4953474;28;20229;-58
2023/09/29 08:16:35;;;;;;;2.50;2.30;;;17.30;99.90;;;;;;4953707;29;20263;-58
2023/09/29 08:19:05;;;;;;;5.53;2.50;;;17.40;99.90;;;;;;4953633;29;20292;-59
2023/09/29 08:21:32;;;;;;;3.17;2.33;;;17.50;99.90;;;;;;4953017;29;20289;-59
2023/09/29 08:24:02;;;;;;;7.90;2.90;;;17.70;99.90;;;;;;4952628;28;20217;-58
2023/09/29 08:26:30;;;;;;;4.03;2.87;;;17.90;99.90;;;;;;4952003;29;20201;-59
2023/09/29 08:28:58;;;;;;;3.63;2.67;;;18.10;99.90;;;;;;4953539;29;20212;-59
2023/09/29 08:31:25;;;;;;;5.60;2.40;;;18.40;99.90;;;;;;4952884;29;20635;-59
2023/09/29 08:33:52;;;;;;;2.90;2.70;;;18.70;99.90;;;;;;4953219;28;20280;-59
2023/09/29 08:36:21;;;;;;;4.70;2.73;;;19.20;99.90;;;;;;4952529;28;20585;-59
2023/09/29 08:38:48;;;;;;;3.33;2.20;;;19.90;99.90;;;;;;4947719;29;20204;-58
2023/09/29 08:41:16;;;;;;;2.60;2.50;;;20.50;99.90;;;;;;4952768;29;20260;-59
2023/09/29 08:43:44;;;;;;;4.43;2.23;;;21.10;99.90;;;;;;4953227;28;20375;-59
2023/09/29 08:46:15;;;;;;;4.07;2.43;;;21.90;99.90;;;;;;4953216;29;20205;-58
2023/09/29 08:48:43;;;;;;;3.80;2.60;;;23.00;99.90;;;;;;4953066;29;20312;-59
2023/09/29 08:51:13;;;;;;;3.90;3.03;;;23.80;99.90;;;;;;4952635;29;20205;-59
2023/09/29 08:53:42;;;;;;;4.37;2.53;;;24.30;99.90;;;;;;4949156;29;20292;-59
2023/09/29 08:56:14;;;;;;;4.20;2.53;;;25.00;99.90;;;;;;4942239;29;20763;-59
2023/09/29 08:58:42;;;;;;;3.17;2.57;;;25.10;99.90;;;;;;4933798;29;20206;-59
2023/09/29 09:01:10;;;;;;;2.83;2.53;;;25.30;99.90;;;;;;4945104;29;20201;-59
2023/09/29 09:03:37;;;;;;;3.43;2.77;;;25.20;99.90;;;;;;4945908;29;20232;-59
2023/09/29 09:06:20;;;;;;;3.33;2.80;;;25.10;99.90;;;;;;4952825;29;20221;-59
2023/09/29 09:08:49;;;;;;;3.07;2.63;;;25.30;99.90;;;;;;4953055;29;20213;-59
2023/09/29 09:11:16;;;;;;;3.93;2.37;;;25.40;99.90;;;;;;4952486;29;20247;-59
2023/09/29 09:13:43;;;;;;;2.47;2.27;;;25.70;99.90;;;;;;4952693;28;20824;-59
2023/09/29 09:16:11;;;;;;;3.17;2.70;;;25.80;99.90;;;;;;4948938;29;20201;-59
2023/09/29 09:18:38;;;;;;;4.60;2.37;;;26.10;99.90;;;;;;4952624;29;20328;-59
2023/09/29 09:21:05;;;;;;;4.67;2.47;;;26.50;99.90;;;;;;4952511;29;20205;-59
2023/09/29 09:23:38;;;;;;;2.43;2.23;;;26.70;99.90;;;;;;4952660;28;20226;-59
2023/09/29 09:26:15;;;;;;;4.13;2.47;;;27.10;99.90;;;;;;4951892;29;20276;-59
2023/09/29 09:28:42;;;;;;;4.00;2.47;;;26.80;99.90;;;;;;4951931;28;20284;-59
2023/09/29 09:31:09;;;;;;;3.40;2.63;;;26.40;99.90;;;;;;4951229;29;20212;-59
2023/09/29 09:33:36;;;;;;;4.40;2.75;;;26.30;99.90;;;;;;4952772;28;20225;-59
2023/09/29 09:36:10;;;;;;;2.23;2.13;;;26.20;99.90;;;;;;4950258;29;20802;-59
2023/09/29 09:38:38;;;;;;;6.30;2.83;;;26.40;99.90;;;;;;4950391;28;20236;-59
2023/09/29 09:41:05;;;;;;;4.40;2.30;;;26.50;99.90;;;;;;4951000;28;20254;-59
2023/09/29 09:43:35;;;;;;;5.45;2.65;;;26.50;99.90;;;;;;4947546;28;20471;-59
2023/09/29 09:46:04;;;;;;;2.58;2.47;;;26.60;99.90;;;;;;4951644;28;20379;-59
2023/09/29 09:48:40;;;;;;;6.18;2.58;;;27.00;99.90;;;;;;4954449;28;20205;-59
2023/09/29 09:51:08;;;;;;;4.00;2.25;;;27.40;99.90;;;;;;4963380;28;20670;-59
2023/09/29 09:53:38;;;;;;;4.32;2.70;;;27.60;99.90;;;;;;4973812;28;20229;-59
2023/09/29 09:56:14;;;;;;;2.00;1.90;;;28.10;99.90;;;;;;4966033;28;20220;-59
2023/09/29 09:58:42;;;;;;;6.32;2.28;;;27.90;99.90;;;;;;4954848;28;20280;-59
2023/09/29 10:01:10;;;;;;;3.22;3.03;;;27.80;99.90;;;;;;4952012;28;20205;-59
2023/09/29 10:03:38;;;;;;;2.85;2.30;;;27.80;99.90;;;;;;4954337;28;20671;-59
2023/09/29 10:06:09;;;;;;;2.90;2.70;;;28.00;99.90;;;;;;4962326;28;20249;-59
2023/09/29 10:08:37;;;;;;;2.17;2.05;;;28.00;99.90;;;;;;4968377;28;20244;-59
2023/09/29 10:11:12;;;;;;;2.60;2.50;;;27.70;99.90;;;;;;4954941;29;20682;-59
2023/09/29 10:13:42;;;;;;;2.75;2.60;;;28.00;99.90;;;;;;4974177;28;20243;-59
2023/09/29 10:16:20;;;;;;;2.45;2.25;;;28.10;99.90;;;;;;4966646;28;20221;-59
2023/09/29 10:18:55;;;;;;;2.28;2.17;;;28.30;99.90;;;;;;4949074;28;20244;-59
2023/09/29 10:21:22;;;;;;;4.32;2.17;;;28.60;99.90;;;;;;4954565;29;20257;-59
2023/09/29 10:23:50;;;;;;;4.47;2.13;;;28.70;99.90;;;;;;4954698;28;20317;-59
2023/09/29 10:26:20;;;;;;;3.10;2.55;;;28.90;99.90;;;;;;4958370;28;20202;-59
2023/09/29 10:28:49;;;;;;;7.13;2.80;;;29.30;99.90;;;;;;4949872;28;20201;-59
2023/09/29 10:31:18;;;;;;;5.70;2.20;;;28.80;99.90;;;;;;4953518;28;20201;-59
2023/09/29 10:33:50;;;;;;;2.25;2.05;;;28.50;99.90;;;;;;4957056;28;20239;-60
2023/09/29 10:36:18;;;;;;;2.03;1.92;;;28.00;99.90;;;;;;4963753;28;20359;-59
2023/09/29 10:38:45;;;;;;;2.30;2.08;;;27.70;99.90;;;;;;4945260;28;20205;-59
2023/09/29 10:41:14;;;;;;;2.50;2.33;;;27.20;99.90;;;;;;4954051;28;20686;-59
2023/09/29 10:43:43;;;;;;;3.40;2.35;;;26.60;99.90;;;;;;4961536;28;20220;-59
2023/09/29 10:46:13;;;;;;;2.60;2.40;;;26.40;99.90;;;;;;4962377;28;20205;-59
2023/09/29 10:48:46;;;;;;;5.93;2.45;;;26.20;99.90;;;;;;4962016;28;20216;-59
2023/09/29 10:51:23;;;;;;;2.65;2.30;;;25.80;99.90;;;;;;4950563;28;20585;-59
2023/09/29 10:53:50;;;;;;;2.30;2.20;;;25.70;99.90;;;;;;4952829;28;20552;-65
2023/09/29 10:56:21;;;;;;;2.35;2.17;;;25.80;99.90;;;;;;4955630;28;20634;-65
2023/09/29 10:58:52;;;;;;;2.88;2.55;;;25.90;99.90;;;;;;4952669;28;20198;-64
2023/09/29 11:01:27;;;;;;;3.30;2.42;;;25.70;99.90;;;;;;4960093;28;20208;-64
2023/09/29 11:03:54;;;;;;;3.22;2.60;;;25.70;99.90;;;;;;4959803;28;20235;-65
2023/09/29 11:06:21;;;;;;;2.63;2.05;;;25.60;99.90;;;;;;4957961;28;20197;-67
2023/09/29 11:08:53;;;;;;;3.92;2.00;;;25.70;99.90;;;;;;4958335;28;20208;-65
2023/09/29 11:11:20;;;;;;;3.10;2.33;;;25.70;99.90;;;;;;4953817;28;20288;-66
2023/09/29 11:13:57;;;;;;;3.55;2.58;;;25.50;99.90;;;;;;4949566;28;20784;-64
2023/09/29 11:16:27;;;;;;;2.65;2.47;;;25.50;99.90;;;;;;4953024;28;20271;-67
2023/09/29 11:18:56;;;;;;;1.77;1.75;;;25.40;99.90;;;;;;4957684;28;20209;-66
2023/09/29 11:21:33;;;;;;;2.55;2.03;;;25.40;99.90;;;;;;4958584;28;20209;-65
2023/09/29 11:24:05;;;;;;;3.53;2.40;;;25.40;99.90;;;;;;4961049;28;20230;-65
2023/09/29 11:26:33;;;;;;;3.45;2.15;;;25.50;99.90;;;;;;4951152;28;20293;-67
2023/09/29 11:29:00;;;;;;;3.17;2.38;;;25.60;99.90;;;;;;4951434;28;20205;-58
2023/09/29 11:31:28;;;;;;;2.25;2.15;;;25.40;99.90;;;;;;4950751;29;20283;-59
2023/09/29 11:33:56;;;;;;;4.97;2.30;;;25.40;99.90;;;;;;4954203;28;20217;-58
2023/09/29 11:36:25;;;;;;;2.10;1.90;;;25.30;99.90;;;;;;4956602;28;20232;-59
2023/09/29 11:38:52;;;;;;;2.13;2.10;;;25.30;99.90;;;;;;4960254;28;20228;-58
2023/09/29 11:41:21;;;;;;;2.13;2.03;;;25.50;99.90;;;;;;4959236;28;20260;-58
2023/09/29 11:43:48;;;;;;;1.73;1.63;;;25.60;99.90;;;;;;4950989;28;20288;-59
2023/09/29 11:46:15;;;;;;;3.53;2.58;;;25.70;99.90;;;;;;4953152;29;20202;-58
2023/09/29 11:48:44;;;;;;;2.50;2.00;;;25.50;99.90;;;;;;4963199;28;20271;-59
2023/09/29 11:51:13;;;;;;;2.80;2.65;;;25.50;99.90;;;;;;4953376;28;20209;-59
2023/09/29 11:53:40;;;;;;;3.25;2.97;;;25.50;99.90;;;;;;4955649;28;20355;-59
2023/09/29 11:56:08;;;;;;;2.05;1.95;;;25.50;99.90;;;;;;4956264;28;20229;-59
2023/09/29 11:58:35;;;;;;;3.15;2.50;;;25.50;99.90;;;;;;4956460;28;20702;-58
2023/09/29 12:01:02;;;;;;;2.78;2.58;;;25.40;99.90;;;;;;4949900;29;20201;-59
2023/09/29 12:03:29;;;;;;;2.42;2.10;;;25.20;99.90;;;;;;4952777;28;20229;-59
2023/09/29 12:05:58;;;;;;;2.70;2.57;;;25.20;99.90;;;;;;4953457;28;20276;-58
2023/09/29 12:08:25;;;;;;;4.70;2.00;;;25.20;99.90;;;;;;4953309;28;20201;-59
2023/09/29 12:10:53;;;;;;;5.25;3.53;;;25.30;99.90;;;;;;4954052;28;20204;-59
2023/09/29 12:13:20;;;;;;;2.38;1.90;;;25.30;99.90;;;;;;4955471;28;20224;-59
2023/09/29 12:15:47;;;;;;;2.03;1.92;;;25.20;99.90;;;;;;4955233;28;20276;-58
2023/09/29 12:18:14;;;;;;;3.23;2.57;;;25.20;99.90;;;;;;4952589;29;20582;-59
2023/09/29 12:20:43;;;;;;;2.58;2.45;;;25.20;99.90;;;;;;4961742;28;20255;-58
2023/09/29 12:23:11;;;;;;;3.28;3.08;;;25.20;99.90;;;;;;4956700;28;20649;-59
2023/09/29 12:25:39;;;;;;;2.88;2.67;;;25.20;99.90;;;;;;4953759;28;20667;-58
2023/09/29 12:28:07;;;;;;;3.08;2.58;;;25.20;99.90;;;;;;4954894;28;20201;-58
2023/09/29 12:30:34;;;;;;;1.92;1.80;;;25.20;99.90;;;;;;4987591;23;20728;-55
2023/09/29 12:33:01;;;;;;;4.57;2.87;;;25.10;99.90;;;;;;4965631;28;20209;-55
2023/09/29 12:35:29;;;;;;;3.65;3.45;;;25.20;99.90;;;;;;4970848;28;20216;-55
2023/09/29 12:37:56;;;;;;;6.40;3.93;;;25.30;99.90;;;;;;4971023;28;20674;-55
2023/09/29 12:40:24;;;;;;;5.38;3.65;;;25.30;99.90;;;;;;4970791;28;20597;-55
2023/09/29 12:42:51;;;;;;;5.53;3.73;;;25.20;99.90;;;;;;4970891;28;20225;-55
2023/09/29 12:45:21;;;;;;;4.27;3.97;;;25.30;99.90;;;;;;4972871;28;20197;-55
2023/09/29 12:47:48;;;;;;;6.40;4.80;;;25.30;99.90;;;;;;4969476;28;20263;-55
2023/09/29 12:50:16;;;;;;;11.67;4.50;;;25.20;99.90;;;;;;4969711;28;20609;-55